sensor_id;sensor_type;location;lat;lon;timestamp;pressure;altitude;pressure_sealevel;temperature;humidity
28428;BME280;15662;49.128;8.520;2023-01-28T00:01:46;101199.44;;;9.21;45.48
28428;BME280;15662;49.128;8.520;2023-01-28T00:04:13;101206.50;;;9.19;45.56
28428;BME280;15662;49.128;8.520;2023-01-28T00:06:42;101201.22;;;9.19;45.35
28428;BME280;15662;49.128;8.520;2023-01-28T00:09:10;101208.28;;;9.19;45.48
28428;BME280;15662;49.128;8.520;2023-01-28T00:11:37;101191.53;;;9.17;45.95
28428;BME280;15662;49.128;8.520;2023-01-28T00:14:05;101195.94;;;9.18;45.64
28428;BME280;15662;49.128;8.520;2023-01-28T00:16:33;101201.19;;;9.21;45.60
28428;BME280;15662;49.128;8.520;2023-01-28T00:19:02;101198.56;;;9.19;45.73
28428;BME280;15662;49.128;8.520;2023-01-28T00:21:30;101202.09;;;9.21;45.79
28428;BME280;15662;49.128;8.520;2023-01-28T00:23:57;101196.81;;;9.21;45.91
28428;BME280;15662;49.128;8.520;2023-01-28T00:26:26;101202.06;;;9.23;45.84
28428;BME280;15662;49.128;8.520;2023-01-28T00:28:54;101195.03;;;9.20;46.04
28428;BME280;15662;49.128;8.520;2023-01-28T00:31:24;101186.19;;;9.23;45.60
28428;BME280;15662;49.128;8.520;2023-01-28T00:33:55;101192.38;;;9.22;45.93
28428;BME280;15662;49.128;8.520;2023-01-28T00:36:25;101190.56;;;9.25;45.77
28428;BME280;15662;49.128;8.520;2023-01-28T00:38:57;101185.31;;;9.22;45.53
28428;BME280;15662;49.128;8.520;2023-01-28T00:41:27;101194.13;;;9.23;46.16
28428;BME280;15662;49.128;8.520;2023-01-28T00:43:58;101183.56;;;9.20;46.01
28428;BME280;15662;49.128;8.520;2023-01-28T00:46:26;101197.66;;;9.26;45.87
28428;BME280;15662;49.128;8.520;2023-01-28T00:48:55;101189.72;;;9.26;45.89
28428;BME280;15662;49.128;8.520;2023-01-28T00:51:23;101186.16;;;9.26;45.69
28428;BME280;15662;49.128;8.520;2023-01-28T00:53:50;101187.03;;;9.28;45.86
28428;BME280;15662;49.128;8.520;2023-01-28T00:56:19;101192.34;;;9.28;45.67
28428;BME280;15662;49.128;8.520;2023-01-28T00:58:47;101176.47;;;9.26;46.15
28428;BME280;15662;49.128;8.520;2023-01-28T01:01:25;101165.91;;;9.26;46.08
28428;BME280;15662;49.128;8.520;2023-01-28T01:03:54;101179.97;;;9.28;45.94
28428;BME280;15662;49.128;8.520;2023-01-28T01:06:36;101178.19;;;9.32;46.21
28428;BME280;15662;49.128;8.520;2023-01-28T01:09:09;101179.09;;;9.31;45.97
28428;BME280;15662;49.128;8.520;2023-01-28T01:11:37;101177.31;;;9.33;45.93
28428;BME280;15662;49.128;8.520;2023-01-28T01:14:05;101192.25;;;9.36;46.20
28428;BME280;15662;49.128;8.520;2023-01-28T01:16:33;101194.91;;;9.37;46.04
28428;BME280;15662;49.128;8.520;2023-01-28T01:19:03;101179.94;;;9.36;46.20
28428;BME280;15662;49.128;8.520;2023-01-28T01:21:31;101186.09;;;9.37;45.90
28428;BME280;15662;49.128;8.520;2023-01-28T01:23:59;101189.59;;;9.40;46.23
28428;BME280;15662;49.128;8.520;2023-01-28T01:26:27;101187.84;;;9.39;46.15
28428;BME280;15662;49.128;8.520;2023-01-28T01:28:57;101193.09;;;9.44;46.29
28428;BME280;15662;49.128;8.520;2023-01-28T01:31:25;101185.19;;;9.42;46.01
28428;BME280;15662;49.128;8.520;2023-01-28T01:33:53;101193.97;;;9.46;46.09
28428;BME280;15662;49.128;8.520;2023-01-28T01:36:21;101188.66;;;9.44;46.04
28428;BME280;15662;49.128;8.520;2023-01-28T01:38:54;101184.28;;;9.43;45.80
28428;BME280;15662;49.128;8.520;2023-01-28T01:41:29;101194.84;;;9.45;45.94
28428;BME280;15662;49.128;8.520;2023-01-28T01:44:01;101201.94;;;9.41;46.27
28428;BME280;15662;49.128;8.520;2023-01-28T01:46:42;101191.34;;;9.40;45.83
28428;BME280;15662;49.128;8.520;2023-01-28T01:49:25;101196.63;;;9.43;45.67
28428;BME280;15662;49.128;8.520;2023-01-28T01:52:02;101178.16;;;9.38;46.09
28428;BME280;15662;49.128;8.520;2023-01-28T01:54:33;101187.88;;;9.35;46.15
28428;BME280;15662;49.128;8.520;2023-01-28T01:57:04;101177.31;;;9.30;46.07
28428;BME280;15662;49.128;8.520;2023-01-28T01:59:36;101200.22;;;9.34;46.29
28428;BME280;15662;49.128;8.520;2023-01-28T02:02:07;101185.22;;;9.36;46.27
28428;BME280;15662;49.128;8.520;2023-01-28T02:04:43;101184.31;;;9.36;46.04
28428;BME280;15662;49.128;8.520;2023-01-28T02:07:15;101178.19;;;9.34;46.44
28428;BME280;15662;49.128;8.520;2023-01-28T02:09:45;101183.47;;;9.30;46.36
28428;BME280;15662;49.128;8.520;2023-01-28T02:12:17;101181.69;;;9.34;46.46
28428;BME280;15662;49.128;8.520;2023-01-28T02:15:00;101175.53;;;9.34;46.06
28428;BME280;15662;49.128;8.520;2023-01-28T02:17:29;101187.91;;;9.28;46.49
28428;BME280;15662;49.128;8.520;2023-01-28T02:20:07;101185.22;;;9.35;46.25
28428;BME280;15662;49.128;8.520;2023-01-28T02:40:13;101194.97;;;9.28;46.24
28428;BME280;15662;49.128;8.520;2023-01-28T02:42:45;101192.34;;;9.25;46.65
28428;BME280;15662;49.128;8.520;2023-01-28T02:45:30;101200.25;;;9.31;46.39
28428;BME280;15662;49.128;8.520;2023-01-28T02:48:21;101204.69;;;9.27;46.52
28428;BME280;15662;49.128;8.520;2023-01-28T02:51:16;101203.81;;;9.27;46.37
28428;BME280;15662;49.128;8.520;2023-01-28T02:54:36;101202.94;;;9.25;46.44
28428;BME280;15662;49.128;8.520;2023-01-28T03:00:20;101209.13;;;9.21;46.81
28428;BME280;15662;49.128;8.520;2023-01-28T03:05:51;101214.44;;;9.19;46.88
28428;BME280;15662;49.128;8.520;2023-01-28T03:09:02;101218.84;;;9.19;46.53
28428;BME280;15662;49.128;8.520;2023-01-28T03:12:06;101210.94;;;9.14;46.94
28428;BME280;15662;49.128;8.520;2023-01-28T03:15:20;101215.34;;;9.17;46.80
28428;BME280;15662;49.128;8.520;2023-01-28T03:18:27;101212.72;;;9.14;46.97
28428;BME280;15662;49.128;8.520;2023-01-28T03:21:33;101198.66;;;9.04;47.08
28428;BME280;15662;49.128;8.520;2023-01-28T03:24:31;101203.91;;;9.10;47.03
28428;BME280;15662;49.128;8.520;2023-01-28T03:30:49;101210.06;;;9.11;47.39
28428;BME280;15662;49.128;8.520;2023-01-28T03:33:47;101216.28;;;9.05;47.63
28428;BME280;15662;49.128;8.520;2023-01-28T03:36:34;101210.09;;;9.06;47.85
28428;BME280;15662;49.128;8.520;2023-01-28T03:39:48;101216.31;;;9.02;47.78
28428;BME280;15662;49.128;8.520;2023-01-28T03:42:17;101213.66;;;9.03;47.69
28428;BME280;15662;49.128;8.520;2023-01-28T03:44:55;101210.13;;;9.03;47.63
28428;BME280;15662;49.128;8.520;2023-01-28T03:47:27;101221.59;;;9.07;47.62
28428;BME280;15662;49.128;8.520;2023-01-28T03:49:57;101215.38;;;9.06;47.86
28428;BME280;15662;49.128;8.520;2023-01-28T03:52:32;101222.50;;;9.02;47.61
28428;BME280;15662;49.128;8.520;2023-01-28T03:55:15;101222.50;;;9.02;47.98
28428;BME280;15662;49.128;8.520;2023-01-28T03:57:43;101227.75;;;9.05;47.75
28428;BME280;15662;49.128;8.520;2023-01-28T04:00:13;101221.63;;;9.02;48.16
28428;BME280;15662;49.128;8.520;2023-01-28T04:02:44;101229.50;;;9.05;48.17
28428;BME280;15662;49.128;8.520;2023-01-28T04:05:15;101229.59;;;8.90;47.83
28428;BME280;15662;49.128;8.520;2023-01-28T04:07:52;101236.63;;;8.97;48.17
28428;BME280;15662;49.128;8.520;2023-01-28T04:10:39;101232.19;;;8.96;48.15
28428;BME280;15662;49.128;8.520;2023-01-28T04:13:27;101234.84;;;8.97;48.42
28428;BME280;15662;49.128;8.520;2023-01-28T04:15:55;101237.47;;;8.99;48.56
28428;BME280;15662;49.128;8.520;2023-01-28T04:18:23;101242.75;;;9.00;48.22
28428;BME280;15662;49.128;8.520;2023-01-28T04:20:55;101242.75;;;9.00;48.44
28428;BME280;15662;49.128;8.520;2023-01-28T04:23:23;101241.00;;;8.99;48.73
28428;BME280;15662;49.128;8.520;2023-01-28T04:25:52;101246.28;;;8.99;48.82
28428;BME280;15662;49.128;8.520;2023-01-28T04:28:22;101241.00;;;8.99;48.40
28428;BME280;15662;49.128;8.520;2023-01-28T04:30:53;101237.47;;;8.99;48.71
28428;BME280;15662;49.128;8.520;2023-01-28T04:33:36;101248.06;;;9.02;48.69
28428;BME280;15662;49.128;8.520;2023-01-28T04:36:19;101251.56;;;9.02;48.77
28428;BME280;15662;49.128;8.520;2023-01-28T04:39:06;101248.91;;;9.01;48.66
28428;BME280;15662;49.128;8.520;2023-01-28T04:41:37;101248.94;;;8.99;48.58
28428;BME280;15662;49.128;8.520;2023-01-28T04:44:12;101248.94;;;8.99;48.80
28428;BME280;15662;49.128;8.520;2023-01-28T04:46:55;101251.59;;;8.98;48.75
28428;BME280;15662;49.128;8.520;2023-01-28T04:49:40;101248.06;;;8.99;48.95
28428;BME280;15662;49.128;8.520;2023-01-28T04:52:26;101249.81;;;9.00;48.64
28428;BME280;15662;49.128;8.520;2023-01-28T04:54:57;101255.13;;;8.98;49.05
28428;BME280;15662;49.128;8.520;2023-01-28T04:57:25;101256.84;;;9.01;48.89
28428;BME280;15662;49.128;8.520;2023-01-28T04:59:53;101256.88;;;8.99;48.81
28428;BME280;15662;49.128;8.520;2023-01-28T05:02:21;101263.91;;;9.03;48.84
28428;BME280;15662;49.128;8.520;2023-01-28T05:04:49;101259.50;;;9.04;49.01
28428;BME280;15662;49.128;8.520;2023-01-28T05:07:42;101252.50;;;8.97;49.19
28428;BME280;15662;49.128;8.520;2023-01-28T05:10:10;101248.06;;;8.94;49.34
28428;BME280;15662;49.128;8.520;2023-01-28T05:12:38;101269.22;;;8.99;49.27
28428;BME280;15662;49.128;8.520;2023-01-28T05:15:08;101268.34;;;8.98;49.22
28428;BME280;15662;49.128;8.520;2023-01-28T05:17:35;101269.25;;;8.94;49.50
28428;BME280;15662;49.128;8.520;2023-01-28T05:20:04;101257.81;;;8.86;49.54
28428;BME280;15662;49.128;8.520;2023-01-28T05:22:32;101267.53;;;8.87;49.27
28428;BME280;15662;49.128;8.520;2023-01-28T05:25:21;101263.13;;;8.80;49.48
28428;BME280;15662;49.128;8.520;2023-01-28T05:27:52;101269.28;;;8.81;49.70
28428;BME280;15662;49.128;8.520;2023-01-28T05:30:21;101278.09;;;8.76;49.83
28428;BME280;15662;49.128;8.520;2023-01-28T05:32:53;101282.53;;;8.77;49.94
28428;BME280;15662;49.128;8.520;2023-01-28T05:35:22;101282.53;;;8.77;50.00
28428;BME280;15662;49.128;8.520;2023-01-28T05:37:50;101277.22;;;8.79;49.56
28428;BME280;15662;49.128;8.520;2023-01-28T05:40:19;101280.75;;;8.79;50.01
28428;BME280;15662;49.128;8.520;2023-01-28T05:42:47;101276.34;;;8.78;49.80
28428;BME280;15662;49.128;8.520;2023-01-28T05:45:41;101278.13;;;8.75;49.93
28428;BME280;15662;49.128;8.520;2023-01-28T05:48:13;101289.66;;;8.59;50.02
28428;BME280;15662;49.128;8.520;2023-01-28T05:51:09;101284.34;;;8.65;49.82
28428;BME280;15662;49.128;8.520;2023-01-28T05:53:41;101285.22;;;8.65;50.00
28428;BME280;15662;49.128;8.520;2023-01-28T05:56:10;101301.06;;;8.70;50.42
28428;BME280;15662;49.128;8.520;2023-01-28T05:58:40;101296.66;;;8.69;50.41
28428;BME280;15662;49.128;8.520;2023-01-28T06:01:08;101289.63;;;8.65;50.44
28428;BME280;15662;49.128;8.520;2023-01-28T06:03:46;101290.50;;;8.68;50.42
28428;BME280;15662;49.128;8.520;2023-01-28T06:06:14;101297.53;;;8.72;50.16
28428;BME280;15662;49.128;8.520;2023-01-28T06:08:42;101306.31;;;8.77;50.15
28428;BME280;15662;49.128;8.520;2023-01-28T06:11:10;101310.72;;;8.78;50.36
28428;BME280;15662;49.128;8.520;2023-01-28T06:13:39;101321.28;;;8.80;50.62
28428;BME280;15662;49.128;8.520;2023-01-28T06:16:31;101309.84;;;8.73;50.63
28428;BME280;15662;49.128;8.520;2023-01-28T06:19:10;101324.81;;;8.82;50.71
28428;BME280;15662;49.128;8.520;2023-01-28T06:21:38;101320.41;;;8.83;50.76
28428;BME280;15662;49.128;8.520;2023-01-28T06:24:06;101315.13;;;8.83;50.83
28428;BME280;15662;49.128;8.520;2023-01-28T06:26:35;101318.66;;;8.78;51.02
28428;BME280;15662;49.128;8.520;2023-01-28T06:29:03;101334.50;;;8.88;50.61
28428;BME280;15662;49.128;8.520;2023-01-28T06:31:31;101336.25;;;8.92;50.91
28428;BME280;15662;49.128;8.520;2023-01-28T06:33:58;101323.91;;;8.85;50.46
28428;BME280;15662;49.128;8.520;2023-01-28T06:36:26;101332.69;;;8.91;50.39
28428;BME280;15662;49.128;8.520;2023-01-28T06:38:54;101339.75;;;8.94;50.23
28428;BME280;15662;49.128;8.520;2023-01-28T06:41:22;101334.47;;;8.89;50.41
28428;BME280;15662;49.128;8.520;2023-01-28T06:43:50;101339.75;;;8.89;50.67
28428;BME280;15662;49.128;8.520;2023-01-28T06:46:18;101337.13;;;8.88;50.57
28428;BME280;15662;49.128;8.520;2023-01-28T06:48:45;101341.53;;;8.89;50.74
28428;BME280;15662;49.128;8.520;2023-01-28T06:51:13;101352.09;;;8.86;50.88
28428;BME280;15662;49.128;8.520;2023-01-28T06:53:42;101339.78;;;8.83;50.54
28428;BME280;15662;49.128;8.520;2023-01-28T06:56:12;101343.31;;;8.79;50.40
28428;BME280;15662;49.128;8.520;2023-01-28T06:58:41;101350.38;;;8.83;50.10
28428;BME280;15662;49.128;8.520;2023-01-28T07:01:09;101359.19;;;8.82;50.68
28428;BME280;15662;49.128;8.520;2023-01-28T07:03:37;101357.44;;;8.75;50.54
28428;BME280;15662;49.128;8.520;2023-01-28T07:06:05;101372.41;;;8.77;50.25
28428;BME280;15662;49.128;8.520;2023-01-28T07:08:33;101356.56;;;8.73;50.42
28428;BME280;15662;49.128;8.520;2023-01-28T07:11:01;101369.75;;;8.71;50.59
28428;BME280;15662;49.128;8.520;2023-01-28T07:13:29;101373.31;;;8.73;51.05
28428;BME280;15662;49.128;8.520;2023-01-28T07:15:57;101368.00;;;8.70;51.03
28428;BME280;15662;49.128;8.520;2023-01-28T07:18:24;101369.78;;;8.68;51.02
28428;BME280;15662;49.128;8.520;2023-01-28T07:20:52;101377.69;;;8.71;50.75
28428;BME280;15662;49.128;8.520;2023-01-28T07:23:20;101371.53;;;8.71;50.89
28428;BME280;15662;49.128;8.520;2023-01-28T07:25:48;101381.25;;;8.72;50.38
28428;BME280;15662;49.128;8.520;2023-01-28T07:28:16;101373.31;;;8.69;50.86
28428;BME280;15662;49.128;8.520;2023-01-28T07:30:51;101375.97;;;8.69;50.60
28428;BME280;15662;49.128;8.520;2023-01-28T07:33:20;101384.78;;;8.68;50.90
28428;BME280;15662;49.128;8.520;2023-01-28T07:35:48;101390.03;;;8.71;51.06
28428;BME280;15662;49.128;8.520;2023-01-28T07:38:16;101390.94;;;8.68;51.16
28428;BME280;15662;49.128;8.520;2023-01-28T07:40:44;101389.16;;;8.70;50.36
28428;BME280;15662;49.128;8.520;2023-01-28T07:43:12;101383.88;;;8.72;50.91
28428;BME280;15662;49.128;8.520;2023-01-28T07:45:41;101402.38;;;8.73;50.81
28428;BME280;15662;49.128;8.520;2023-01-28T07:48:11;101393.56;;;8.76;50.55
28428;BME280;15662;49.128;8.520;2023-01-28T07:50:40;101386.53;;;8.69;50.75
28428;BME280;15662;49.128;8.520;2023-01-28T07:53:11;101393.56;;;8.77;50.62
28428;BME280;15662;49.128;8.520;2023-01-28T07:55:39;101401.47;;;8.79;50.81
28428;BME280;15662;49.128;8.520;2023-01-28T07:58:10;101398.84;;;8.79;50.79
28428;BME280;15662;49.128;8.520;2023-01-28T08:00:38;101404.13;;;8.81;50.82
28428;BME280;15662;49.128;8.520;2023-01-28T08:03:12;101405.88;;;8.80;50.91
28428;BME280;15662;49.128;8.520;2023-01-28T08:05:46;101408.53;;;8.80;51.30
28428;BME280;15662;49.128;8.520;2023-01-28T08:08:15;101415.59;;;8.78;51.42
28428;BME280;15662;49.128;8.520;2023-01-28T08:10:43;101412.94;;;8.84;51.31
28428;BME280;15662;49.128;8.520;2023-01-28T08:13:12;101411.19;;;8.83;50.77
28428;BME280;15662;49.128;8.520;2023-01-28T08:15:41;101408.50;;;8.82;51.37
28428;BME280;15662;49.128;8.520;2023-01-28T08:18:12;101413.81;;;8.83;51.42
28428;BME280;15662;49.128;8.520;2023-01-28T08:20:41;101420.00;;;8.82;50.81
28428;BME280;15662;49.128;8.520;2023-01-28T08:23:17;101417.34;;;8.84;51.30
28428;BME280;15662;49.128;8.520;2023-01-28T08:25:47;101419.09;;;8.85;51.42
28428;BME280;15662;49.128;8.520;2023-01-28T08:28:16;101419.09;;;8.88;51.19
28428;BME280;15662;49.128;8.520;2023-01-28T08:30:45;101418.22;;;8.89;51.13
28428;BME280;15662;49.128;8.520;2023-01-28T08:33:15;101425.25;;;8.94;51.34
28428;BME280;15662;49.128;8.520;2023-01-28T08:35:43;101423.47;;;8.96;51.25
28428;BME280;15662;49.128;8.520;2023-01-28T08:38:12;101429.63;;;9.04;51.04
28428;BME280;15662;49.128;8.520;2023-01-28T08:40:41;101431.41;;;9.04;51.31
28428;BME280;15662;49.128;8.520;2023-01-28T08:43:09;101429.63;;;9.12;51.46
28428;BME280;15662;49.128;8.520;2023-01-28T08:45:39;101434.88;;;9.18;51.12
28428;BME280;15662;49.128;8.520;2023-01-28T08:48:27;101432.25;;;9.17;51.17
28428;BME280;15662;49.128;8.520;2023-01-28T08:51:14;101422.53;;;9.20;51.47
28428;BME280;15662;49.128;8.520;2023-01-28T08:54:02;101416.38;;;9.18;51.25
28428;BME280;15662;49.128;8.520;2023-01-28T08:56:30;101424.25;;;9.29;50.99
28428;BME280;15662;49.128;8.520;2023-01-28T08:58:58;101418.97;;;9.29;50.96
28428;BME280;15662;49.128;8.520;2023-01-28T09:01:25;101425.13;;;9.37;51.05
28428;BME280;15662;49.128;8.520;2023-01-28T09:03:56;101429.53;;;9.38;50.62
28428;BME280;15662;49.128;8.520;2023-01-28T09:06:24;101433.91;;;9.42;50.96
28428;BME280;15662;49.128;8.520;2023-01-28T09:08:51;101427.75;;;9.40;51.01
28428;BME280;15662;49.128;8.520;2023-01-28T09:11:19;101438.31;;;9.45;50.65
28428;BME280;15662;49.128;8.520;2023-01-28T09:13:47;101434.78;;;9.43;50.89
28428;BME280;15662;49.128;8.520;2023-01-28T09:16:15;101432.13;;;9.44;50.57
28428;BME280;15662;49.128;8.520;2023-01-28T09:18:44;101423.34;;;9.39;50.63
28428;BME280;15662;49.128;8.520;2023-01-28T09:21:11;101438.31;;;9.45;50.60
28428;BME280;15662;49.128;8.520;2023-01-28T09:23:39;101440.06;;;9.44;50.36
28428;BME280;15662;49.128;8.520;2023-01-28T09:26:07;101436.56;;;9.47;50.43
28428;BME280;15662;49.128;8.520;2023-01-28T09:28:37;101441.81;;;9.45;50.49
28428;BME280;15662;49.128;8.520;2023-01-28T09:31:10;101441.81;;;9.48;50.60
28428;BME280;15662;49.128;8.520;2023-01-28T09:33:39;101448.91;;;9.46;50.23
28428;BME280;15662;49.128;8.520;2023-01-28T09:36:09;101449.78;;;9.48;50.40
28428;BME280;15662;49.128;8.520;2023-01-28T09:38:38;101454.19;;;9.45;50.34
28428;BME280;15662;49.128;8.520;2023-01-28T09:41:27;101455.94;;;9.49;50.05
28428;BME280;15662;49.128;8.520;2023-01-28T09:44:25;101466.56;;;9.46;50.09
28428;BME280;15662;49.128;8.520;2023-01-28T09:47:06;101466.56;;;9.43;49.96
28428;BME280;15662;49.128;8.520;2023-01-28T09:49:42;101465.69;;;9.42;50.28
28428;BME280;15662;49.128;8.520;2023-01-28T09:52:16;101465.69;;;9.42;50.35
28428;BME280;15662;49.128;8.520;2023-01-28T09:54:48;101463.00;;;9.41;50.19
28428;BME280;15662;49.128;8.520;2023-01-28T09:57:24;101480.69;;;9.39;50.00
28428;BME280;15662;49.128;8.520;2023-01-28T09:59:52;101476.28;;;9.36;50.35
28428;BME280;15662;49.128;8.520;2023-01-28T10:02:36;101474.50;;;9.38;50.25
28428;BME280;15662;49.128;8.520;2023-01-28T10:05:41;101469.22;;;9.30;50.16
28428;BME280;15662;49.128;8.520;2023-01-28T10:20:16;101471.91;;;9.20;50.25
28428;BME280;15662;49.128;8.520;2023-01-28T10:23:17;101467.53;;;9.17;50.63
28428;BME280;15662;49.128;8.520;2023-01-28T10:25:47;101465.75;;;9.15;50.87
28428;BME280;15662;49.128;8.520;2023-01-28T10:28:27;101465.75;;;9.18;50.74
28428;BME280;15662;49.128;8.520;2023-01-28T10:30:56;101468.41;;;9.18;50.51
28428;BME280;15662;49.128;8.520;2023-01-28T10:35:55;101459.59;;;9.17;50.46
28428;BME280;15662;49.128;8.520;2023-01-28T10:38:25;101459.56;;;9.20;50.56
28428;BME280;15662;49.128;8.520;2023-01-28T10:41:00;101461.31;;;9.24;50.43
28428;BME280;15662;49.128;8.520;2023-01-28T10:43:34;101452.50;;;9.19;50.83
28428;BME280;15662;49.128;8.520;2023-01-28T10:46:25;101466.59;;;9.27;50.39
28428;BME280;15662;49.128;8.520;2023-01-28T10:49:12;101467.47;;;9.28;50.54
28428;BME280;15662;49.128;8.520;2023-01-28T10:51:42;101466.59;;;9.24;50.57
28428;BME280;15662;49.128;8.520;2023-01-28T10:54:28;101478.06;;;9.25;50.31
28428;BME280;15662;49.128;8.520;2023-01-28T10:57:07;101484.25;;;9.24;50.62
28428;BME280;15662;49.128;8.520;2023-01-28T10:59:37;101471.91;;;9.15;50.98
28428;BME280;15662;49.128;8.520;2023-01-28T11:05:14;101468.34;;;9.25;50.59
28428;BME280;15662;49.128;8.520;2023-01-28T11:07:48;101470.13;;;9.23;50.71
28428;BME280;15662;49.128;8.520;2023-01-28T11:12:56;101474.50;;;9.41;50.56
28428;BME280;15662;49.128;8.520;2023-01-28T11:15:25;101482.44;;;9.43;50.54
28428;BME280;15662;49.128;8.520;2023-01-28T11:18:05;101483.31;;;9.46;50.18
28428;BME280;15662;49.128;8.520;2023-01-28T11:20:42;101477.16;;;9.41;50.70
28428;BME280;15662;49.128;8.520;2023-01-28T11:23:50;101483.31;;;9.40;50.19
28428;BME280;15662;49.128;8.520;2023-01-28T11:26:36;101480.69;;;9.37;50.33
28428;BME280;15662;49.128;8.520;2023-01-28T11:29:05;101479.81;;;9.32;50.18
28428;BME280;15662;49.128;8.520;2023-01-28T11:31:42;101478.03;;;9.37;50.29
28428;BME280;15662;49.128;8.520;2023-01-28T11:34:14;101478.06;;;9.33;50.11
28428;BME280;15662;49.128;8.520;2023-01-28T11:37:01;101482.47;;;9.37;50.01
28428;BME280;15662;49.128;8.520;2023-01-28T11:39:32;101485.97;;;9.34;50.19
28428;BME280;15662;49.128;8.520;2023-01-28T11:42:21;101475.38;;;9.36;50.15
28428;BME280;15662;49.128;8.520;2023-01-28T11:44:49;101471.88;;;9.34;50.31
28428;BME280;15662;49.128;8.520;2023-01-28T11:47:39;101487.72;;;9.43;50.03
28428;BME280;15662;49.128;8.520;2023-01-28T11:50:38;101478.03;;;9.39;49.77
28428;BME280;15662;49.128;8.520;2023-01-28T11:53:41;101479.78;;;9.43;50.21
28428;BME280;15662;49.128;8.520;2023-01-28T11:59:52;101479.75;;;9.50;49.74
28428;BME280;15662;49.128;8.520;2023-01-28T12:08:33;101462.13;;;9.51;49.65
28428;BME280;15662;49.128;8.520;2023-01-28T12:30:15;101453.31;;;9.46;49.25
28428;BME280;15662;49.128;8.520;2023-01-28T12:39:31;101450.63;;;9.50;49.11
28428;BME280;15662;49.128;8.520;2023-01-28T12:41:50;101450.66;;;9.52;48.84
28428;BME280;15662;49.128;8.520;2023-01-28T12:44:41;101447.09;;;9.50;48.81
28428;BME280;15662;49.128;8.520;2023-01-28T12:47:19;101440.94;;;9.49;48.71
28428;BME280;15662;49.128;8.520;2023-01-28T12:50:29;101449.72;;;9.54;49.01
28428;BME280;15662;49.128;8.520;2023-01-28T12:53:18;101455.91;;;9.58;48.74
28428;BME280;15662;49.128;8.520;2023-01-28T12:58:39;101446.19;;;9.59;48.65
28428;BME280;15662;49.128;8.520;2023-01-28T13:01:17;101444.44;;;9.61;48.55
28428;BME280;15662;49.128;8.520;2023-01-28T13:07:39;101440.06;;;9.49;48.20
28428;BME280;15662;49.128;8.520;2023-01-28T13:15:45;101428.59;;;9.48;48.26
28428;BME280;15662;49.128;8.520;2023-01-28T13:26:56;101449.63;;;9.77;48.20
28428;BME280;15662;49.128;8.520;2023-01-28T13:31:58;101449.63;;;9.79;47.84
28428;BME280;15662;49.128;8.520;2023-01-28T13:34:36;101452.25;;;9.82;47.67
28428;BME280;15662;49.128;8.520;2023-01-28T13:42:40;101447.88;;;9.78;47.49
28428;BME280;15662;49.128;8.520;2023-01-28T13:47:51;101467.22;;;9.92;47.42
28428;BME280;15662;49.128;8.520;2023-01-28T13:50:24;101460.19;;;9.87;47.48
28428;BME280;15662;49.128;8.520;2023-01-28T13:53:01;101466.34;;;9.90;47.52
28428;BME280;15662;49.128;8.520;2023-01-28T13:55:38;101461.91;;;9.92;47.18
28428;BME280;15662;49.128;8.520;2023-01-28T14:01:19;101469.91;;;9.83;47.36
28428;BME280;15662;49.128;8.520;2023-01-28T14:04:35;101476.06;;;9.85;47.24
28428;BME280;15662;49.128;8.520;2023-01-28T14:07:24;101476.06;;;9.85;47.37
28428;BME280;15662;49.128;8.520;2023-01-28T14:10:32;101489.28;;;9.88;46.97
28428;BME280;15662;49.128;8.520;2023-01-28T14:16:25;101505.16;;;9.93;46.82
28428;BME280;15662;49.128;8.520;2023-01-28T14:18:58;101501.66;;;9.91;46.88
28428;BME280;15662;49.128;8.520;2023-01-28T14:21:27;101502.53;;;9.91;46.85
28428;BME280;15662;49.128;8.520;2023-01-28T14:23:59;101509.59;;;9.89;46.83
28428;BME280;15662;49.128;8.520;2023-01-28T14:32:28;101527.31;;;9.81;46.64
28428;BME280;15662;49.128;8.520;2023-01-28T14:35:03;101526.44;;;9.76;46.41
28428;BME280;15662;49.128;8.520;2023-01-28T14:37:32;101529.09;;;9.73;46.52
28428;BME280;15662;49.128;8.520;2023-01-28T14:40:06;101519.41;;;9.67;46.38
28428;BME280;15662;49.128;8.520;2023-01-28T14:42:42;101527.31;;;9.70;46.47
28428;BME280;15662;49.128;8.520;2023-01-28T14:49:13;101528.25;;;9.60;46.54
28428;BME280;15662;49.128;8.520;2023-01-28T14:57:46;101530.94;;;9.46;46.53
28428;BME280;15662;49.128;8.520;2023-01-28T15:00:29;101520.38;;;9.39;46.17
28428;BME280;15662;49.128;8.520;2023-01-28T15:02:57;101529.19;;;9.38;46.03
28428;BME280;15662;49.128;8.520;2023-01-28T15:05:29;101544.19;;;9.39;46.02
28428;BME280;15662;49.128;8.520;2023-01-28T15:07:58;101530.09;;;9.29;45.70
28428;BME280;15662;49.128;8.520;2023-01-28T15:10:28;101538.03;;;9.30;45.89
28428;BME280;15662;49.128;8.520;2023-01-28T15:13:12;101536.28;;;9.31;45.56
28428;BME280;15662;49.128;8.520;2023-01-28T15:15:46;101527.47;;;9.24;45.79
28428;BME280;15662;49.128;8.520;2023-01-28T15:18:19;101540.66;;;9.30;45.81
28428;BME280;15662;49.128;8.520;2023-01-28T15:20:52;101548.59;;;9.35;45.99
28428;BME280;15662;49.128;8.520;2023-01-28T15:23:35;101553.91;;;9.34;45.77
28428;BME280;15662;49.128;8.520;2023-01-28T15:26:14;101541.56;;;9.28;45.73
28428;BME280;15662;49.128;8.520;2023-01-28T15:28:45;101556.53;;;9.26;45.57
28428;BME280;15662;49.128;8.520;2023-01-28T15:31:34;101554.78;;;9.28;45.81
28428;BME280;15662;49.128;8.520;2023-01-28T15:34:15;101550.41;;;9.18;45.43
28428;BME280;15662;49.128;8.520;2023-01-28T15:36:45;101561.88;;;9.18;45.36
28428;BME280;15662;49.128;8.520;2023-01-28T15:39:20;101559.22;;;9.20;45.20
28428;BME280;15662;49.128;8.520;2023-01-28T15:42:02;101570.69;;;9.23;45.75
28428;BME280;15662;49.128;8.520;2023-01-28T15:44:43;101566.25;;;9.25;45.29
28428;BME280;15662;49.128;8.520;2023-01-28T15:47:28;101575.09;;;9.21;45.03
28428;BME280;15662;49.128;8.520;2023-01-28T15:50:06;101560.09;;;9.16;45.59
28428;BME280;15662;49.128;8.520;2023-01-28T15:52:38;101560.09;;;9.13;45.23
28428;BME280;15662;49.128;8.520;2023-01-28T15:55:41;101561.00;;;9.12;45.11
28428;BME280;15662;49.128;8.520;2023-01-28T15:58:30;101563.63;;;9.09;45.23